In Rescue
 
Open Full Screen Window  High Contrast Mode
October 19, 2020 6:30 PM CDT
Weather Information
Wind Direction
  ---
Wind Speed
  00 kt (0 mph)
Wind Gust
  00 kt (0 mph)
Altimeter
30.24 in
Visibility
10 SM
Temperature
01° C
34° F
Dewpoint
-03° C
27° F
Humidity
75%
1hr Rain Fall
00.00 in.
24hr Rain Fall
00.00 in.
Sky Condition
Overcast @ 7,000 ft
Broken @ 4,600 ft
VFR

METAR KOWA 192330Z AUTO 00000KT 10SM BKN046 OVC070 01/M03 A3024 RMK AO2

FAA Disclaimer: The data displayed is for advisory purposes only and is not to be used for flight planning or operations.